sensor_id;sensor_type;location;lat;lon;timestamp;P1;durP1;ratioP1;P2;durP2;ratioP2
74102;SDS011;62853;46.166;3.640;2024-02-14T00:00:20;4.53;;;2.08;;
74102;SDS011;62853;46.166;3.640;2024-02-14T00:02:46;2.53;;;2.00;;
74102;SDS011;62853;46.166;3.640;2024-02-14T00:05:15;3.75;;;2.05;;
74102;SDS011;62853;46.166;3.640;2024-02-14T00:07:40;4.22;;;2.17;;
74102;SDS011;62853;46.166;3.640;2024-02-14T00:10:06;2.97;;;2.10;;
74102;SDS011;62853;46.166;3.640;2024-02-14T00:12:32;2.95;;;1.80;;
74102;SDS011;62853;46.166;3.640;2024-02-14T00:14:58;2.75;;;2.10;;
74102;SDS011;62853;46.166;3.640;2024-02-14T00:17:24;3.83;;;2.17;;
74102;SDS011;62853;46.166;3.640;2024-02-14T00:19:50;2.45;;;1.90;;
74102;SDS011;62853;46.166;3.640;2024-02-14T00:22:16;2.78;;;2.35;;
74102;SDS011;62853;46.166;3.640;2024-02-14T00:24:41;2.33;;;1.73;;
74102;SDS011;62853;46.166;3.640;2024-02-14T00:27:07;2.60;;;1.90;;
74102;SDS011;62853;46.166;3.640;2024-02-14T00:29:32;5.63;;;2.05;;
74102;SDS011;62853;46.166;3.640;2024-02-14T00:31:59;3.22;;;2.20;;
74102;SDS011;62853;46.166;3.640;2024-02-14T00:34:25;4.03;;;2.08;;
74102;SDS011;62853;46.166;3.640;2024-02-14T00:36:50;4.63;;;2.70;;
74102;SDS011;62853;46.166;3.640;2024-02-14T00:39:16;2.42;;;1.88;;
74102;SDS011;62853;46.166;3.640;2024-02-14T00:41:41;4.45;;;2.33;;
74102;SDS011;62853;46.166;3.640;2024-02-14T00:44:06;2.75;;;2.20;;
74102;SDS011;62853;46.166;3.640;2024-02-14T00:46:32;4.72;;;2.47;;
74102;SDS011;62853;46.166;3.640;2024-02-14T00:48:57;2.53;;;2.17;;
74102;SDS011;62853;46.166;3.640;2024-02-14T00:51:23;2.70;;;2.20;;
74102;SDS011;62853;46.166;3.640;2024-02-14T00:53:48;6.38;;;2.58;;
74102;SDS011;62853;46.166;3.640;2024-02-14T00:56:13;4.68;;;2.60;;
74102;SDS011;62853;46.166;3.640;2024-02-14T00:58:39;3.95;;;2.22;;
74102;SDS011;62853;46.166;3.640;2024-02-14T01:01:04;4.25;;;2.60;;
74102;SDS011;62853;46.166;3.640;2024-02-14T01:03:30;3.72;;;2.70;;
74102;SDS011;62853;46.166;3.640;2024-02-14T01:05:56;3.53;;;2.40;;
74102;SDS011;62853;46.166;3.640;2024-02-14T01:08:21;5.53;;;2.75;;
74102;SDS011;62853;46.166;3.640;2024-02-14T01:10:47;4.50;;;2.50;;
74102;SDS011;62853;46.166;3.640;2024-02-14T01:13:14;3.78;;;2.55;;
74102;SDS011;62853;46.166;3.640;2024-02-14T01:15:40;4.30;;;2.33;;
74102;SDS011;62853;46.166;3.640;2024-02-14T01:18:06;3.65;;;2.10;;
74102;SDS011;62853;46.166;3.640;2024-02-14T01:20:32;4.55;;;2.50;;
74102;SDS011;62853;46.166;3.640;2024-02-14T01:22:57;3.80;;;2.60;;
74102;SDS011;62853;46.166;3.640;2024-02-14T01:25:22;5.15;;;2.65;;
74102;SDS011;62853;46.166;3.640;2024-02-14T01:27:48;4.95;;;3.03;;
74102;SDS011;62853;46.166;3.640;2024-02-14T01:30:14;4.63;;;2.42;;
74102;SDS011;62853;46.166;3.640;2024-02-14T01:32:39;3.42;;;2.50;;
74102;SDS011;62853;46.166;3.640;2024-02-14T01:35:05;4.40;;;2.40;;
74102;SDS011;62853;46.166;3.640;2024-02-14T01:37:31;3.83;;;2.65;;
74102;SDS011;62853;46.166;3.640;2024-02-14T01:39:56;5.72;;;2.88;;
74102;SDS011;62853;46.166;3.640;2024-02-14T01:42:21;4.20;;;2.45;;
74102;SDS011;62853;46.166;3.640;2024-02-14T01:44:47;4.30;;;2.60;;
74102;SDS011;62853;46.166;3.640;2024-02-14T01:47:12;2.78;;;2.35;;
74102;SDS011;62853;46.166;3.640;2024-02-14T01:49:38;3.33;;;2.70;;
74102;SDS011;62853;46.166;3.640;2024-02-14T01:52:04;4.28;;;2.40;;
74102;SDS011;62853;46.166;3.640;2024-02-14T01:54:30;4.65;;;2.33;;
74102;SDS011;62853;46.166;3.640;2024-02-14T01:56:56;4.60;;;2.50;;
74102;SDS011;62853;46.166;3.640;2024-02-14T01:59:23;3.92;;;2.83;;
74102;SDS011;62853;46.166;3.640;2024-02-14T02:01:49;4.70;;;2.53;;
74102;SDS011;62853;46.166;3.640;2024-02-14T02:04:16;3.05;;;2.25;;
74102;SDS011;62853;46.166;3.640;2024-02-14T02:06:43;5.22;;;2.80;;
74102;SDS011;62853;46.166;3.640;2024-02-14T02:09:08;4.00;;;2.65;;
74102;SDS011;62853;46.166;3.640;2024-02-14T02:11:49;4.60;;;2.83;;
74102;SDS011;62853;46.166;3.640;2024-02-14T02:14:16;5.07;;;3.22;;
74102;SDS011;62853;46.166;3.640;2024-02-14T02:16:42;3.38;;;2.53;;
74102;SDS011;62853;46.166;3.640;2024-02-14T02:19:08;5.45;;;2.80;;
74102;SDS011;62853;46.166;3.640;2024-02-14T02:21:35;4.45;;;2.65;;
74102;SDS011;62853;46.166;3.640;2024-02-14T02:24:01;3.58;;;2.45;;
74102;SDS011;62853;46.166;3.640;2024-02-14T02:26:27;4.70;;;2.78;;
74102;SDS011;62853;46.166;3.640;2024-02-14T02:28:52;6.22;;;2.30;;
74102;SDS011;62853;46.166;3.640;2024-02-14T02:31:19;6.82;;;2.70;;
74102;SDS011;62853;46.166;3.640;2024-02-14T02:33:45;3.55;;;2.55;;
74102;SDS011;62853;46.166;3.640;2024-02-14T02:36:10;4.90;;;3.00;;
74102;SDS011;62853;46.166;3.640;2024-02-14T02:38:36;5.45;;;3.00;;
74102;SDS011;62853;46.166;3.640;2024-02-14T02:41:05;5.28;;;2.63;;
74102;SDS011;62853;46.166;3.640;2024-02-14T02:43:34;4.85;;;2.80;;
74102;SDS011;62853;46.166;3.640;2024-02-14T02:45:59;4.47;;;2.70;;
74102;SDS011;62853;46.166;3.640;2024-02-14T02:48:25;4.25;;;2.78;;
74102;SDS011;62853;46.166;3.640;2024-02-14T02:50:51;6.55;;;2.80;;
74102;SDS011;62853;46.166;3.640;2024-02-14T02:53:17;5.00;;;2.67;;
74102;SDS011;62853;46.166;3.640;2024-02-14T02:55:43;4.05;;;2.60;;
74102;SDS011;62853;46.166;3.640;2024-02-14T02:58:08;4.65;;;2.70;;
74102;SDS011;62853;46.166;3.640;2024-02-14T03:00:34;4.10;;;2.60;;
74102;SDS011;62853;46.166;3.640;2024-02-14T03:02:59;4.82;;;2.60;;
74102;SDS011;62853;46.166;3.640;2024-02-14T03:05:25;4.40;;;2.83;;
74102;SDS011;62853;46.166;3.640;2024-02-14T03:07:51;6.43;;;2.85;;
74102;SDS011;62853;46.166;3.640;2024-02-14T03:10:17;3.58;;;2.50;;
74102;SDS011;62853;46.166;3.640;2024-02-14T03:12:49;3.70;;;2.78;;
74102;SDS011;62853;46.166;3.640;2024-02-14T03:15:14;5.20;;;3.10;;
74102;SDS011;62853;46.166;3.640;2024-02-14T03:17:40;5.78;;;3.00;;
74102;SDS011;62853;46.166;3.640;2024-02-14T03:20:07;5.05;;;2.90;;
74102;SDS011;62853;46.166;3.640;2024-02-14T03:22:39;4.05;;;2.35;;
74102;SDS011;62853;46.166;3.640;2024-02-14T03:25:13;4.18;;;2.55;;
74102;SDS011;62853;46.166;3.640;2024-02-14T03:27:41;3.75;;;2.40;;
74102;SDS011;62853;46.166;3.640;2024-02-14T03:30:07;3.30;;;2.38;;
74102;SDS011;62853;46.166;3.640;2024-02-14T03:32:32;4.88;;;2.50;;
74102;SDS011;62853;46.166;3.640;2024-02-14T03:34:58;3.88;;;2.60;;
74102;SDS011;62853;46.166;3.640;2024-02-14T03:37:25;3.83;;;2.92;;
74102;SDS011;62853;46.166;3.640;2024-02-14T03:39:51;3.28;;;2.70;;
74102;SDS011;62853;46.166;3.640;2024-02-14T03:42:16;4.72;;;3.05;;
74102;SDS011;62853;46.166;3.640;2024-02-14T03:44:43;3.75;;;2.85;;
74102;SDS011;62853;46.166;3.640;2024-02-14T03:47:08;4.97;;;3.08;;
74102;SDS011;62853;46.166;3.640;2024-02-14T03:49:34;4.45;;;2.63;;
74102;SDS011;62853;46.166;3.640;2024-02-14T03:51:59;3.42;;;2.78;;
74102;SDS011;62853;46.166;3.640;2024-02-14T03:54:26;3.92;;;2.80;;
74102;SDS011;62853;46.166;3.640;2024-02-14T03:56:51;4.15;;;2.70;;
74102;SDS011;62853;46.166;3.640;2024-02-14T03:59:17;4.88;;;2.53;;
74102;SDS011;62853;46.166;3.640;2024-02-14T04:01:49;3.67;;;2.63;;
74102;SDS011;62853;46.166;3.640;2024-02-14T04:04:15;3.95;;;2.70;;
74102;SDS011;62853;46.166;3.640;2024-02-14T04:06:41;4.72;;;3.17;;
74102;SDS011;62853;46.166;3.640;2024-02-14T04:09:07;5.78;;;3.55;;
74102;SDS011;62853;46.166;3.640;2024-02-14T04:11:32;4.95;;;2.60;;
74102;SDS011;62853;46.166;3.640;2024-02-14T04:13:58;5.78;;;2.80;;
74102;SDS011;62853;46.166;3.640;2024-02-14T04:16:23;3.72;;;2.97;;
74102;SDS011;62853;46.166;3.640;2024-02-14T04:18:48;4.25;;;2.47;;
74102;SDS011;62853;46.166;3.640;2024-02-14T04:21:14;3.83;;;2.80;;
74102;SDS011;62853;46.166;3.640;2024-02-14T04:23:39;4.13;;;2.67;;
74102;SDS011;62853;46.166;3.640;2024-02-14T04:26:05;4.40;;;2.90;;
74102;SDS011;62853;46.166;3.640;2024-02-14T04:28:31;4.50;;;2.70;;
74102;SDS011;62853;46.166;3.640;2024-02-14T04:30:56;3.20;;;2.42;;
74102;SDS011;62853;46.166;3.640;2024-02-14T04:33:22;3.72;;;2.33;;
74102;SDS011;62853;46.166;3.640;2024-02-14T04:35:47;5.38;;;2.72;;
74102;SDS011;62853;46.166;3.640;2024-02-14T04:38:12;4.82;;;2.65;;
74102;SDS011;62853;46.166;3.640;2024-02-14T04:40:38;5.07;;;3.00;;
74102;SDS011;62853;46.166;3.640;2024-02-14T04:43:04;4.78;;;2.63;;
74102;SDS011;62853;46.166;3.640;2024-02-14T04:45:30;3.58;;;2.75;;
74102;SDS011;62853;46.166;3.640;2024-02-14T04:47:55;4.57;;;2.80;;
74102;SDS011;62853;46.166;3.640;2024-02-14T04:50:20;5.00;;;3.28;;
74102;SDS011;62853;46.166;3.640;2024-02-14T04:52:46;4.82;;;2.80;;
74102;SDS011;62853;46.166;3.640;2024-02-14T04:55:11;5.60;;;3.05;;
74102;SDS011;62853;46.166;3.640;2024-02-14T04:57:37;5.10;;;2.85;;
74102;SDS011;62853;46.166;3.640;2024-02-14T05:00:04;4.45;;;2.80;;
74102;SDS011;62853;46.166;3.640;2024-02-14T05:02:30;7.22;;;3.10;;
74102;SDS011;62853;46.166;3.640;2024-02-14T05:04:56;4.72;;;3.38;;
74102;SDS011;62853;46.166;3.640;2024-02-14T05:07:21;4.22;;;3.15;;
74102;SDS011;62853;46.166;3.640;2024-02-14T05:09:47;5.00;;;2.97;;
74102;SDS011;62853;46.166;3.640;2024-02-14T05:12:15;4.22;;;2.85;;
74102;SDS011;62853;46.166;3.640;2024-02-14T05:14:40;5.15;;;3.53;;
74102;SDS011;62853;46.166;3.640;2024-02-14T05:17:06;9.45;;;3.33;;
74102;SDS011;62853;46.166;3.640;2024-02-14T05:19:32;4.57;;;3.33;;
74102;SDS011;62853;46.166;3.640;2024-02-14T05:21:58;6.53;;;3.67;;
74102;SDS011;62853;46.166;3.640;2024-02-14T05:24:23;5.82;;;3.53;;
74102;SDS011;62853;46.166;3.640;2024-02-14T05:26:52;4.57;;;3.40;;
74102;SDS011;62853;46.166;3.640;2024-02-14T05:29:17;4.22;;;3.33;;
74102;SDS011;62853;46.166;3.640;2024-02-14T05:31:46;4.43;;;3.05;;
74102;SDS011;62853;46.166;3.640;2024-02-14T05:34:13;5.05;;;3.47;;
74102;SDS011;62853;46.166;3.640;2024-02-14T05:36:39;4.72;;;3.28;;
74102;SDS011;62853;46.166;3.640;2024-02-14T05:39:04;5.20;;;3.30;;
74102;SDS011;62853;46.166;3.640;2024-02-14T05:41:33;5.82;;;3.65;;
74102;SDS011;62853;46.166;3.640;2024-02-14T05:43:59;6.45;;;3.80;;
74102;SDS011;62853;46.166;3.640;2024-02-14T05:46:25;5.70;;;3.50;;
74102;SDS011;62853;46.166;3.640;2024-02-14T05:48:50;3.53;;;3.17;;
74102;SDS011;62853;46.166;3.640;2024-02-14T05:51:17;4.85;;;3.30;;
74102;SDS011;62853;46.166;3.640;2024-02-14T05:53:43;3.83;;;3.15;;
74102;SDS011;62853;46.166;3.640;2024-02-14T05:56:08;4.80;;;3.72;;
74102;SDS011;62853;46.166;3.640;2024-02-14T05:58:34;4.40;;;3.35;;
74102;SDS011;62853;46.166;3.640;2024-02-14T06:00:59;4.65;;;3.53;;
74102;SDS011;62853;46.166;3.640;2024-02-14T06:03:24;5.35;;;3.83;;
74102;SDS011;62853;46.166;3.640;2024-02-14T06:05:50;4.82;;;3.75;;
74102;SDS011;62853;46.166;3.640;2024-02-14T06:08:15;6.18;;;4.20;;
74102;SDS011;62853;46.166;3.640;2024-02-14T06:10:40;5.25;;;4.22;;
74102;SDS011;62853;46.166;3.640;2024-02-14T06:13:06;5.80;;;3.75;;
74102;SDS011;62853;46.166;3.640;2024-02-14T06:15:31;6.22;;;4.00;;
74102;SDS011;62853;46.166;3.640;2024-02-14T06:17:56;5.88;;;4.03;;
74102;SDS011;62853;46.166;3.640;2024-02-14T06:20:22;5.70;;;4.28;;
74102;SDS011;62853;46.166;3.640;2024-02-14T06:22:48;6.50;;;4.18;;
74102;SDS011;62853;46.166;3.640;2024-02-14T06:25:13;6.75;;;4.60;;
74102;SDS011;62853;46.166;3.640;2024-02-14T06:27:39;5.50;;;4.22;;
74102;SDS011;62853;46.166;3.640;2024-02-14T06:30:04;6.20;;;4.05;;
74102;SDS011;62853;46.166;3.640;2024-02-14T06:32:30;8.00;;;4.70;;
74102;SDS011;62853;46.166;3.640;2024-02-14T06:34:56;5.50;;;4.15;;
74102;SDS011;62853;46.166;3.640;2024-02-14T06:37:21;5.53;;;4.25;;
74102;SDS011;62853;46.166;3.640;2024-02-14T06:39:46;8.32;;;4.53;;
74102;SDS011;62853;46.166;3.640;2024-02-14T06:42:13;7.57;;;4.22;;
74102;SDS011;62853;46.166;3.640;2024-02-14T06:44:39;6.97;;;4.28;;
74102;SDS011;62853;46.166;3.640;2024-02-14T06:47:05;6.28;;;4.28;;
74102;SDS011;62853;46.166;3.640;2024-02-14T06:49:30;6.63;;;4.32;;
74102;SDS011;62853;46.166;3.640;2024-02-14T06:51:56;6.40;;;3.85;;
74102;SDS011;62853;46.166;3.640;2024-02-14T06:54:21;8.27;;;4.50;;
74102;SDS011;62853;46.166;3.640;2024-02-14T06:56:47;7.32;;;4.03;;
74102;SDS011;62853;46.166;3.640;2024-02-14T06:59:13;6.20;;;4.35;;
74102;SDS011;62853;46.166;3.640;2024-02-14T07:01:38;7.47;;;4.75;;
74102;SDS011;62853;46.166;3.640;2024-02-14T07:04:04;6.18;;;3.97;;
74102;SDS011;62853;46.166;3.640;2024-02-14T07:06:30;7.22;;;4.07;;
74102;SDS011;62853;46.166;3.640;2024-02-14T07:08:55;4.85;;;4.15;;
74102;SDS011;62853;46.166;3.640;2024-02-14T07:11:21;6.97;;;4.55;;
74102;SDS011;62853;46.166;3.640;2024-02-14T07:13:46;6.38;;;4.38;;
74102;SDS011;62853;46.166;3.640;2024-02-14T07:16:11;7.10;;;4.70;;
74102;SDS011;62853;46.166;3.640;2024-02-14T07:18:37;6.00;;;4.63;;
74102;SDS011;62853;46.166;3.640;2024-02-14T07:21:02;8.75;;;4.55;;
74102;SDS011;62853;46.166;3.640;2024-02-14T07:23:30;7.32;;;4.10;;
74102;SDS011;62853;46.166;3.640;2024-02-14T07:25:57;6.75;;;4.55;;
74102;SDS011;62853;46.166;3.640;2024-02-14T07:28:22;7.53;;;4.65;;
74102;SDS011;62853;46.166;3.640;2024-02-14T07:30:48;7.22;;;4.63;;
74102;SDS011;62853;46.166;3.640;2024-02-14T07:33:13;9.50;;;4.75;;
74102;SDS011;62853;46.166;3.640;2024-02-14T07:35:38;7.45;;;4.55;;
74102;SDS011;62853;46.166;3.640;2024-02-14T07:38:04;6.97;;;5.03;;
74102;SDS011;62853;46.166;3.640;2024-02-14T07:40:29;7.03;;;4.47;;
74102;SDS011;62853;46.166;3.640;2024-02-14T07:42:56;6.07;;;4.20;;
74102;SDS011;62853;46.166;3.640;2024-02-14T07:45:22;6.55;;;4.60;;
74102;SDS011;62853;46.166;3.640;2024-02-14T07:47:49;6.72;;;4.40;;
74102;SDS011;62853;46.166;3.640;2024-02-14T07:50:14;7.95;;;4.50;;
74102;SDS011;62853;46.166;3.640;2024-02-14T07:52:44;7.63;;;4.35;;
74102;SDS011;62853;46.166;3.640;2024-02-14T07:55:10;8.32;;;4.70;;
74102;SDS011;62853;46.166;3.640;2024-02-14T07:57:37;7.00;;;4.40;;
74102;SDS011;62853;46.166;3.640;2024-02-14T08:00:04;5.85;;;4.10;;
74102;SDS011;62853;46.166;3.640;2024-02-14T08:02:33;5.80;;;3.80;;
74102;SDS011;62853;46.166;3.640;2024-02-14T08:04:58;7.28;;;4.57;;
74102;SDS011;62853;46.166;3.640;2024-02-14T08:07:24;6.75;;;4.13;;
74102;SDS011;62853;46.166;3.640;2024-02-14T08:09:49;6.63;;;4.50;;
74102;SDS011;62853;46.166;3.640;2024-02-14T08:12:15;6.70;;;4.70;;
74102;SDS011;62853;46.166;3.640;2024-02-14T08:14:40;7.03;;;4.22;;
74102;SDS011;62853;46.166;3.640;2024-02-14T08:17:05;9.18;;;4.15;;
74102;SDS011;62853;46.166;3.640;2024-02-14T08:19:31;6.57;;;4.68;;
74102;SDS011;62853;46.166;3.640;2024-02-14T08:21:56;6.63;;;4.00;;
74102;SDS011;62853;46.166;3.640;2024-02-14T08:24:26;6.65;;;3.78;;
74102;SDS011;62853;46.166;3.640;2024-02-14T08:26:52;5.32;;;3.67;;
74102;SDS011;62853;46.166;3.640;2024-02-14T08:29:18;7.28;;;4.43;;
74102;SDS011;62853;46.166;3.640;2024-02-14T08:31:44;8.13;;;4.32;;
74102;SDS011;62853;46.166;3.640;2024-02-14T08:34:09;5.80;;;4.18;;
74102;SDS011;62853;46.166;3.640;2024-02-14T08:36:35;7.60;;;4.32;;
74102;SDS011;62853;46.166;3.640;2024-02-14T08:39:06;7.57;;;4.25;;
74102;SDS011;62853;46.166;3.640;2024-02-14T08:41:38;5.97;;;4.00;;
74102;SDS011;62853;46.166;3.640;2024-02-14T08:44:06;6.53;;;4.20;;
74102;SDS011;62853;46.166;3.640;2024-02-14T08:46:31;5.97;;;3.65;;
74102;SDS011;62853;46.166;3.640;2024-02-14T08:48:57;8.10;;;4.07;;
74102;SDS011;62853;46.166;3.640;2024-02-14T08:51:22;7.55;;;3.75;;
74102;SDS011;62853;46.166;3.640;2024-02-14T08:53:48;7.35;;;3.60;;
74102;SDS011;62853;46.166;3.640;2024-02-14T08:56:14;7.38;;;4.35;;
74102;SDS011;62853;46.166;3.640;2024-02-14T08:58:39;7.47;;;4.47;;
74102;SDS011;62853;46.166;3.640;2024-02-14T09:01:05;10.95;;;4.50;;
74102;SDS011;62853;46.166;3.640;2024-02-14T09:03:32;6.60;;;4.10;;
74102;SDS011;62853;46.166;3.640;2024-02-14T09:05:57;6.63;;;4.10;;
74102;SDS011;62853;46.166;3.640;2024-02-14T09:08:23;6.72;;;4.10;;
74102;SDS011;62853;46.166;3.640;2024-02-14T09:10:49;7.15;;;4.22;;
74102;SDS011;62853;46.166;3.640;2024-02-14T09:13:16;7.68;;;3.78;;
74102;SDS011;62853;46.166;3.640;2024-02-14T09:15:42;7.40;;;4.50;;
74102;SDS011;62853;46.166;3.640;2024-02-14T09:18:08;6.85;;;3.92;;
74102;SDS011;62853;46.166;3.640;2024-02-14T09:20:33;6.15;;;3.80;;
74102;SDS011;62853;46.166;3.640;2024-02-14T09:22:59;6.53;;;3.95;;
74102;SDS011;62853;46.166;3.640;2024-02-14T09:25:24;7.57;;;4.13;;
74102;SDS011;62853;46.166;3.640;2024-02-14T09:27:50;7.10;;;4.15;;
74102;SDS011;62853;46.166;3.640;2024-02-14T09:30:16;6.25;;;3.70;;
74102;SDS011;62853;46.166;3.640;2024-02-14T09:32:43;8.15;;;4.10;;
74102;SDS011;62853;46.166;3.640;2024-02-14T09:35:09;6.88;;;3.72;;
74102;SDS011;62853;46.166;3.640;2024-02-14T09:37:35;5.40;;;3.60;;
74102;SDS011;62853;46.166;3.640;2024-02-14T09:40:02;6.40;;;3.88;;
74102;SDS011;62853;46.166;3.640;2024-02-14T09:42:32;6.65;;;3.83;;
74102;SDS011;62853;46.166;3.640;2024-02-14T09:45:07;7.13;;;3.63;;
74102;SDS011;62853;46.166;3.640;2024-02-14T09:47:33;4.78;;;3.50;;
74102;SDS011;62853;46.166;3.640;2024-02-14T09:49:59;5.18;;;3.13;;
74102;SDS011;62853;46.166;3.640;2024-02-14T09:52:27;7.80;;;3.53;;
74102;SDS011;62853;46.166;3.640;2024-02-14T09:54:54;7.18;;;3.45;;
74102;SDS011;62853;46.166;3.640;2024-02-14T09:57:20;7.63;;;3.60;;
74102;SDS011;62853;46.166;3.640;2024-02-14T09:59:46;5.80;;;3.40;;
74102;SDS011;62853;46.166;3.640;2024-02-14T10:02:12;5.53;;;3.08;;
74102;SDS011;62853;46.166;3.640;2024-02-14T10:04:37;5.03;;;2.97;;
74102;SDS011;62853;46.166;3.640;2024-02-14T10:07:04;6.28;;;3.35;;
74102;SDS011;62853;46.166;3.640;2024-02-14T10:09:30;6.05;;;3.33;;
74102;SDS011;62853;46.166;3.640;2024-02-14T10:11:55;5.47;;;3.60;;
74102;SDS011;62853;46.166;3.640;2024-02-14T10:14:23;5.63;;;3.50;;
74102;SDS011;62853;46.166;3.640;2024-02-14T10:16:48;4.28;;;3.10;;
74102;SDS011;62853;46.166;3.640;2024-02-14T10:19:17;5.25;;;3.63;;
74102;SDS011;62853;46.166;3.640;2024-02-14T10:21:43;5.18;;;3.47;;
74102;SDS011;62853;46.166;3.640;2024-02-14T10:24:09;5.88;;;2.95;;
74102;SDS011;62853;46.166;3.640;2024-02-14T10:26:36;4.30;;;3.13;;
74102;SDS011;62853;46.166;3.640;2024-02-14T10:29:02;5.60;;;3.60;;
74102;SDS011;62853;46.166;3.640;2024-02-14T10:31:28;5.43;;;3.35;;
74102;SDS011;62853;46.166;3.640;2024-02-14T10:33:56;6.07;;;3.50;;
74102;SDS011;62853;46.166;3.640;2024-02-14T10:36:21;7.43;;;3.70;;
74102;SDS011;62853;46.166;3.640;2024-02-14T10:38:47;5.88;;;3.30;;
74102;SDS011;62853;46.166;3.640;2024-02-14T10:41:15;5.30;;;4.00;;
74102;SDS011;62853;46.166;3.640;2024-02-14T10:43:41;4.97;;;3.70;;
74102;SDS011;62853;46.166;3.640;2024-02-14T10:46:11;5.85;;;3.58;;
74102;SDS011;62853;46.166;3.640;2024-02-14T10:48:43;7.93;;;3.80;;
74102;SDS011;62853;46.166;3.640;2024-02-14T10:51:09;5.15;;;3.22;;
74102;SDS011;62853;46.166;3.640;2024-02-14T10:53:38;4.72;;;3.08;;
74102;SDS011;62853;46.166;3.640;2024-02-14T10:58:35;5.20;;;3.70;;
74102;SDS011;62853;46.166;3.640;2024-02-14T11:01:01;4.95;;;3.30;;
74102;SDS011;62853;46.166;3.640;2024-02-14T11:03:27;3.83;;;3.17;;
74102;SDS011;62853;46.166;3.640;2024-02-14T11:05:55;5.47;;;3.67;;
74102;SDS011;62853;46.166;3.640;2024-02-14T11:08:28;5.78;;;4.25;;
74102;SDS011;62853;46.166;3.640;2024-02-14T11:10:54;4.75;;;4.18;;
74102;SDS011;62853;46.166;3.640;2024-02-14T11:13:21;6.80;;;4.35;;
74102;SDS011;62853;46.166;3.640;2024-02-14T11:15:52;3.92;;;3.17;;
74102;SDS011;62853;46.166;3.640;2024-02-14T11:18:26;4.57;;;3.80;;
74102;SDS011;62853;46.166;3.640;2024-02-14T11:20:54;4.68;;;2.88;;
74102;SDS011;62853;46.166;3.640;2024-02-14T11:23:22;4.47;;;3.17;;
74102;SDS011;62853;46.166;3.640;2024-02-14T11:25:47;6.40;;;3.20;;
74102;SDS011;62853;46.166;3.640;2024-02-14T11:30:42;5.38;;;3.10;;
74102;SDS011;62853;46.166;3.640;2024-02-14T11:33:15;5.05;;;2.90;;
74102;SDS011;62853;46.166;3.640;2024-02-14T11:35:41;4.25;;;3.05;;
74102;SDS011;62853;46.166;3.640;2024-02-14T11:38:10;4.65;;;3.00;;
74102;SDS011;62853;46.166;3.640;2024-02-14T11:40:38;4.10;;;3.25;;
74102;SDS011;62853;46.166;3.640;2024-02-14T11:43:14;3.97;;;3.13;;
74102;SDS011;62853;46.166;3.640;2024-02-14T11:45:42;7.32;;;2.97;;
74102;SDS011;62853;46.166;3.640;2024-02-14T11:48:09;4.38;;;3.28;;
74102;SDS011;62853;46.166;3.640;2024-02-14T11:50:38;5.18;;;3.63;;
74102;SDS011;62853;46.166;3.640;2024-02-14T11:53:05;4.32;;;3.08;;
74102;SDS011;62853;46.166;3.640;2024-02-14T11:55:34;4.78;;;4.00;;
74102;SDS011;62853;46.166;3.640;2024-02-14T11:58:01;5.68;;;3.88;;
74102;SDS011;62853;46.166;3.640;2024-02-14T12:00:27;4.68;;;3.47;;
74102;SDS011;62853;46.166;3.640;2024-02-14T12:02:53;5.78;;;3.10;;
74102;SDS011;62853;46.166;3.640;2024-02-14T12:05:18;3.88;;;3.13;;
74102;SDS011;62853;46.166;3.640;2024-02-14T12:07:44;3.45;;;3.10;;
74102;SDS011;62853;46.166;3.640;2024-02-14T12:10:10;3.92;;;3.45;;
74102;SDS011;62853;46.166;3.640;2024-02-14T12:12:37;5.57;;;4.40;;
74102;SDS011;62853;46.166;3.640;2024-02-14T12:15:03;4.50;;;4.10;;
74102;SDS011;62853;46.166;3.640;2024-02-14T12:17:30;4.35;;;3.95;;
74102;SDS011;62853;46.166;3.640;2024-02-14T12:20:09;4.32;;;3.65;;
74102;SDS011;62853;46.166;3.640;2024-02-14T12:22:36;4.20;;;3.78;;
74102;SDS011;62853;46.166;3.640;2024-02-14T12:25:02;6.07;;;4.47;;
74102;SDS011;62853;46.166;3.640;2024-02-14T12:27:31;3.10;;;2.80;;
74102;SDS011;62853;46.166;3.640;2024-02-14T12:29:58;4.22;;;3.08;;
74102;SDS011;62853;46.166;3.640;2024-02-14T12:32:23;3.85;;;3.35;;
74102;SDS011;62853;46.166;3.640;2024-02-14T12:34:48;5.00;;;3.00;;
74102;SDS011;62853;46.166;3.640;2024-02-14T12:37:14;3.75;;;2.95;;
74102;SDS011;62853;46.166;3.640;2024-02-14T12:39:40;4.05;;;2.80;;
74102;SDS011;62853;46.166;3.640;2024-02-14T12:42:05;3.20;;;2.67;;
74102;SDS011;62853;46.166;3.640;2024-02-14T12:44:31;2.97;;;2.63;;
74102;SDS011;62853;46.166;3.640;2024-02-14T12:46:56;3.47;;;2.65;;
74102;SDS011;62853;46.166;3.640;2024-02-14T12:49:22;4.22;;;2.95;;
74102;SDS011;62853;46.166;3.640;2024-02-14T12:51:51;2.95;;;2.40;;
74102;SDS011;62853;46.166;3.640;2024-02-14T12:54:16;3.90;;;2.95;;
74102;SDS011;62853;46.166;3.640;2024-02-14T12:56:42;3.45;;;2.60;;
74102;SDS011;62853;46.166;3.640;2024-02-14T12:59:08;3.38;;;2.72;;
74102;SDS011;62853;46.166;3.640;2024-02-14T13:01:37;3.17;;;2.30;;
74102;SDS011;62853;46.166;3.640;2024-02-14T13:04:02;2.75;;;2.35;;
74102;SDS011;62853;46.166;3.640;2024-02-14T13:06:30;2.92;;;2.15;;
74102;SDS011;62853;46.166;3.640;2024-02-14T13:08:56;2.58;;;1.77;;
74102;SDS011;62853;46.166;3.640;2024-02-14T13:11:21;3.42;;;2.15;;
74102;SDS011;62853;46.166;3.640;2024-02-14T13:13:47;2.47;;;2.28;;
74102;SDS011;62853;46.166;3.640;2024-02-14T13:16:12;3.53;;;2.60;;
74102;SDS011;62853;46.166;3.640;2024-02-14T13:18:38;2.85;;;2.50;;
74102;SDS011;62853;46.166;3.640;2024-02-14T13:21:03;3.60;;;2.80;;
74102;SDS011;62853;46.166;3.640;2024-02-14T13:23:29;2.30;;;2.10;;
74102;SDS011;62853;46.166;3.640;2024-02-14T13:25:55;2.22;;;1.80;;
74102;SDS011;62853;46.166;3.640;2024-02-14T13:28:20;2.10;;;1.83;;
74102;SDS011;62853;46.166;3.640;2024-02-14T13:30:45;2.50;;;1.90;;
74102;SDS011;62853;46.166;3.640;2024-02-14T13:33:14;2.22;;;1.65;;
74102;SDS011;62853;46.166;3.640;2024-02-14T13:35:39;2.35;;;1.50;;
74102;SDS011;62853;46.166;3.640;2024-02-14T13:38:05;2.90;;;1.83;;
74102;SDS011;62853;46.166;3.640;2024-02-14T13:40:30;2.08;;;1.67;;
74102;SDS011;62853;46.166;3.640;2024-02-14T13:42:56;2.28;;;1.60;;
74102;SDS011;62853;46.166;3.640;2024-02-14T13:45:22;2.03;;;1.70;;
74102;SDS011;62853;46.166;3.640;2024-02-14T13:47:49;2.17;;;1.63;;
74102;SDS011;62853;46.166;3.640;2024-02-14T13:50:15;2.20;;;1.70;;
74102;SDS011;62853;46.166;3.640;2024-02-14T13:52:41;2.33;;;1.70;;
74102;SDS011;62853;46.166;3.640;2024-02-14T13:55:07;2.58;;;1.70;;
74102;SDS011;62853;46.166;3.640;2024-02-14T13:57:41;3.17;;;1.90;;
74102;SDS011;62853;46.166;3.640;2024-02-14T14:00:07;2.33;;;1.58;;
74102;SDS011;62853;46.166;3.640;2024-02-14T14:02:37;2.67;;;1.85;;
74102;SDS011;62853;46.166;3.640;2024-02-14T14:05:07;3.05;;;2.10;;
74102;SDS011;62853;46.166;3.640;2024-02-14T14:07:37;2.28;;;2.00;;
74102;SDS011;62853;46.166;3.640;2024-02-14T14:10:08;2.22;;;1.83;;
74102;SDS011;62853;46.166;3.640;2024-02-14T14:12:34;3.38;;;2.30;;
74102;SDS011;62853;46.166;3.640;2024-02-14T14:15:00;2.53;;;2.10;;
74102;SDS011;62853;46.166;3.640;2024-02-14T14:17:26;2.00;;;1.58;;
74102;SDS011;62853;46.166;3.640;2024-02-14T14:19:51;2.33;;;1.30;;
74102;SDS011;62853;46.166;3.640;2024-02-14T14:22:17;2.67;;;1.67;;
74102;SDS011;62853;46.166;3.640;2024-02-14T14:24:43;2.20;;;1.80;;
74102;SDS011;62853;46.166;3.640;2024-02-14T14:27:09;1.90;;;1.55;;
74102;SDS011;62853;46.166;3.640;2024-02-14T14:29:38;2.22;;;1.67;;
74102;SDS011;62853;46.166;3.640;2024-02-14T14:32:04;3.20;;;1.65;;
74102;SDS011;62853;46.166;3.640;2024-02-14T14:34:30;2.38;;;1.38;;
74102;SDS011;62853;46.166;3.640;2024-02-14T14:36:57;2.33;;;1.60;;
74102;SDS011;62853;46.166;3.640;2024-02-14T14:39:22;3.33;;;1.50;;
74102;SDS011;62853;46.166;3.640;2024-02-14T14:41:48;1.90;;;1.50;;
74102;SDS011;62853;46.166;3.640;2024-02-14T14:44:13;3.10;;;1.60;;
74102;SDS011;62853;46.166;3.640;2024-02-14T14:46:39;2.83;;;1.80;;